Time;durP1;ratioP1;P1;durP2;ratioP2;P2;SDS_P1;SDS_P2;PMS_P1;PMS_P2;Temp;Humidity;BMP_temperature;BMP_pressure;BME280_temperature;BME280_humidity;BME280_pressure;Samples;Min_cycle;Max_cycle;Signal;HPM_P1;HPM_P2
2022/12/25 00:02:15;;;;;;;3.17;2.60;;;7.20;99.90;;;;;;4971363;28;20057;-66
2022/12/25 00:04:42;;;;;;;3.13;2.75;;;7.20;99.90;;;;;;4972200;28;20050;-66
2022/12/25 00:07:09;;;;;;;;;;;7.20;99.90;;;;;;4971863;28;20347;-64
2022/12/25 00:09:35;;;;;;;2.38;2.17;;;7.20;99.90;;;;;;4969780;28;20039;-64
2022/12/25 00:12:02;;;;;;;;;;;7.20;99.90;;;;;;4970295;28;20049;-66
2022/12/25 00:14:29;;;;;;;3.90;2.58;;;7.20;99.90;;;;;;4969420;28;20118;-64
2022/12/25 00:16:56;;;;;;;2.58;2.15;;;7.20;99.90;;;;;;4971635;28;20719;-65
2022/12/25 00:19:22;;;;;;;;;;;7.30;99.90;;;;;;4974445;28;20832;-65
2022/12/25 00:21:49;;;;;;;2.85;2.15;;;7.20;99.90;;;;;;4971984;28;19929;-65
2022/12/25 00:24:16;;;;;;;6.70;2.20;;;7.30;99.90;;;;;;4971159;28;20044;-65
2022/12/25 00:26:42;;;;;;;;;;;7.30;99.90;;;;;;4971953;28;20050;-65
2022/12/25 00:29:12;;;;;;;1.73;1.52;;;7.30;99.90;;;;;;4974828;28;19925;-64
2022/12/25 00:31:39;;;;;;;2.30;1.90;;;7.30;99.90;;;;;;4970498;28;20189;-63
2022/12/25 00:34:06;;;;;;;2.70;1.58;;;7.30;99.90;;;;;;4969140;28;20042;-65
2022/12/25 00:36:32;;;;;;;3.28;1.77;;;7.30;99.90;;;;;;4970660;28;20045;-65
2022/12/25 00:39:07;;;;;;;2.78;2.05;;;7.30;99.90;;;;;;4973779;28;20046;-66
2022/12/25 00:44:20;;;;;;;3.17;2.15;;;7.30;99.90;;;;;;4966384;28;20038;-63
2022/12/25 00:46:46;;;;;;;;;;;7.30;99.90;;;;;;4971544;28;20046;-67
2022/12/25 00:49:13;;;;;;;2.47;2.00;;;7.40;99.90;;;;;;4973987;28;19932;-65
2022/12/25 00:51:40;;;;;;;2.80;2.20;;;7.30;99.90;;;;;;4974870;28;20141;-64
2022/12/25 00:54:07;;;;;;;3.38;2.53;;;7.40;99.90;;;;;;4971355;28;20050;-64
2022/12/25 00:56:34;;;;;;;3.65;2.33;;;7.40;99.90;;;;;;4968751;28;20129;-64
2022/12/25 00:59:01;;;;;;;3.45;2.95;;;7.40;99.90;;;;;;4973261;28;20070;-65
2022/12/25 01:01:28;;;;;;;2.63;1.95;;;7.40;99.90;;;;;;4971962;28;20117;-65
2022/12/25 01:03:55;;;;;;;4.35;2.47;;;7.40;99.90;;;;;;4969594;28;20050;-66
2022/12/25 01:06:21;;;;;;;2.50;2.22;;;7.40;99.90;;;;;;4974599;28;20038;-65
2022/12/25 01:11:35;;;;;;;2.60;2.00;;;7.40;99.90;;;;;;4972157;28;20402;-65
2022/12/25 01:14:02;;;;;;;3.25;1.83;;;7.50;99.90;;;;;;4974069;28;20046;-66
2022/12/25 01:16:29;;;;;;;2.97;1.70;;;7.50;99.90;;;;;;4971532;28;20053;-67
2022/12/25 01:18:56;;;;;;;;;;;7.50;99.90;;;;;;4973278;28;20042;-66
2022/12/25 01:21:23;;;;;;;3.42;1.98;;;7.60;99.90;;;;;;4969874;28;19933;-67
2022/12/25 01:23:51;;;;;;;3.00;1.95;;;7.50;99.90;;;;;;4974052;28;20060;-67
2022/12/25 01:26:19;;;;;;;3.92;2.03;;;7.60;99.90;;;;;;4971275;28;20050;-66
2022/12/25 01:28:46;;;;;;;1.90;1.73;;;7.60;99.90;;;;;;4968576;28;20046;-65
2022/12/25 01:31:16;;;;;;;2.08;1.70;;;7.60;99.90;;;;;;4968981;28;20202;-67
2022/12/25 01:33:44;;;;;;;2.63;1.55;;;7.60;99.90;;;;;;4968869;28;20045;-66
2022/12/25 01:36:24;;;;;;;2.95;1.80;;;7.60;99.90;;;;;;4971541;28;20886;-66
2022/12/25 01:38:52;;;;;;;1.60;1.50;;;7.70;99.90;;;;;;4987780;28;20046;-65
2022/12/25 01:41:22;;;;;;;3.92;1.90;;;7.70;99.90;;;;;;4968406;28;20142;-66
2022/12/25 01:44:04;;;;;;;2.50;1.73;;;7.70;99.90;;;;;;4982612;28;20053;-65
2022/12/25 01:46:32;;;;;;;1.98;1.70;;;7.70;99.90;;;;;;4970243;28;20081;-66
2022/12/25 01:49:07;;;;;;;2.45;1.52;;;7.70;99.90;;;;;;4970297;28;20062;-66
2022/12/25 01:51:46;;;;;;;1.65;1.48;;;7.70;99.90;;;;;;4971358;28;20538;-65
2022/12/25 01:54:35;;;;;;;1.70;1.50;;;7.70;99.90;;;;;;4970154;28;20078;-65
2022/12/25 01:57:05;;;;;;;2.67;1.63;;;7.70;99.90;;;;;;4967289;28;20152;-65
2022/12/25 01:59:32;;;;;;;2.78;1.73;;;7.80;99.90;;;;;;4969973;28;20105;-66
2022/12/25 02:01:59;;;;;;;2.90;1.38;;;7.80;99.90;;;;;;4971141;28;20141;-65
2022/12/25 02:04:39;;;;;;;2.85;1.75;;;7.80;99.90;;;;;;4986425;28;20140;-65
2022/12/25 02:07:13;;;;;;;1.40;1.30;;;7.80;99.90;;;;;;4972176;28;20050;-63
2022/12/25 02:09:40;;;;;;;2.95;1.40;;;7.80;99.90;;;;;;4968521;28;20038;-66
2022/12/25 02:12:10;;;;;;;1.58;1.30;;;7.80;99.90;;;;;;4969414;28;20080;-64
2022/12/25 02:14:37;;;;;;;1.27;1.17;;;7.90;99.90;;;;;;4967789;28;20050;-63
2022/12/25 02:17:04;;;;;;;;;;;7.90;99.90;;;;;;4970899;28;20046;-65
2022/12/25 02:19:34;;;;;;;1.50;1.40;;;7.90;99.90;;;;;;4970860;28;20756;-64
2022/12/25 02:22:39;;;;;;;1.77;1.30;;;7.90;99.90;;;;;;4973081;28;20053;-66
2022/12/25 02:25:21;;;;;;;1.73;1.45;;;7.90;99.90;;;;;;4973205;28;20042;-65
2022/12/25 02:27:59;;;;;;;3.33;1.52;;;7.90;99.90;;;;;;4973997;28;20074;-64
2022/12/25 02:30:32;;;;;;;3.40;1.70;;;7.90;99.90;;;;;;4969859;28;20045;-66
2022/12/25 02:35:54;;;;;;;1.23;1.13;;;7.90;99.90;;;;;;4969763;28;20062;-66
2022/12/25 02:38:33;;;;;;;1.48;1.20;;;7.90;99.90;;;;;;4968038;28;20388;-67
2022/12/25 02:41:09;;;;;;;1.30;1.20;;;7.90;99.90;;;;;;4970987;28;20070;-66
2022/12/25 03:06:42;;;;;;;1.40;1.30;;;8.10;99.90;;;;;;4968658;28;20070;-64
2022/12/25 03:12:27;;;;;;;1.58;1.40;;;8.10;99.90;;;;;;4969400;28;20228;-66
2022/12/25 03:17:40;;;;;;;1.63;1.30;;;8.10;99.90;;;;;;4971024;28;20244;-65
2022/12/25 03:28:25;;;;;;;2.72;1.55;;;8.20;99.90;;;;;;4969336;28;20132;-64
2022/12/25 03:31:10;;;;;;;;;;;8.20;99.90;;;;;;4975988;28;20052;-66
2022/12/25 03:36:57;;;;;;;5.60;1.30;;;8.30;99.90;;;;;;4972201;28;20057;-65
2022/12/25 04:37:59;;;;;;;2.78;1.50;;;7.80;99.90;;;;;;4971645;28;20786;-63
2022/12/25 04:40:25;;;;;;;;;;;7.80;99.90;;;;;;4989008;28;20046;-66
2022/12/25 04:42:52;;;;;;;2.13;1.60;;;7.80;99.90;;;;;;4971881;28;19926;-66
2022/12/25 04:45:19;;;;;;;;;;;7.80;99.90;;;;;;4972461;28;20053;-64
2022/12/25 04:47:45;;;;;;;1.15;1.10;;;7.80;99.90;;;;;;4974885;28;19925;-65
2022/12/25 04:50:12;;;;;;;;;;;7.80;99.90;;;;;;4975295;28;20043;-65
2022/12/25 04:52:40;;;;;;;2.42;1.10;;;7.80;99.90;;;;;;4972375;28;20029;-64
2022/12/25 04:55:09;;;;;;;1.95;1.48;;;7.80;99.90;;;;;;4971412;28;20101;-64
2022/12/25 04:57:36;;;;;;;2.80;1.40;;;7.80;99.90;;;;;;4986880;28;20121;-65
2022/12/25 05:00:04;;;;;;;1.60;1.30;;;7.80;99.90;;;;;;4971023;28;20042;-64
2022/12/25 05:02:31;;;;;;;1.40;1.30;;;7.80;99.90;;;;;;4968262;28;20791;-65
2022/12/25 05:04:58;;;;;;;2.33;1.60;;;7.80;99.90;;;;;;4973677;28;20724;-65
2022/12/25 05:07:25;;;;;;;5.18;1.88;;;7.80;99.90;;;;;;4970285;28;20045;-64
2022/12/25 05:09:52;;;;;;;;;;;7.80;99.90;;;;;;4973293;28;20045;-65
2022/12/25 05:12:19;;;;;;;1.77;1.30;;;7.80;99.90;;;;;;4971659;28;19987;-65
2022/12/25 05:14:45;;;;;;;;;;;7.90;99.90;;;;;;4970663;28;20436;-65
2022/12/25 05:17:12;;;;;;;4.95;2.40;;;7.90;99.90;;;;;;4971620;28;19976;-64
2022/12/25 05:19:39;;;;;;;5.40;1.88;;;7.90;99.90;;;;;;4972981;28;20784;-65
2022/12/25 05:22:06;;;;;;;4.95;2.45;;;7.90;99.90;;;;;;4969127;28;20054;-64
2022/12/25 05:24:32;;;;;;;;;;;7.90;99.90;;;;;;4974279;28;20153;-64
2022/12/25 05:26:59;;;;;;;3.28;1.60;;;7.90;99.90;;;;;;4971900;28;20588;-64
2022/12/25 05:29:26;;;;;;;;;;;7.90;99.90;;;;;;4971581;28;20129;-64
2022/12/25 05:31:53;;;;;;;2.60;1.90;;;7.90;99.90;;;;;;4970415;28;19926;-64
2022/12/25 05:34:19;;;;;;;6.63;1.95;;;7.90;99.90;;;;;;4969414;28;20614;-64
2022/12/25 05:36:46;;;;;;;;;;;7.90;99.90;;;;;;4970646;28;20126;-64
2022/12/25 05:39:13;;;;;;;2.63;1.90;;;7.90;99.90;;;;;;4969731;28;19926;-65
2022/12/25 05:41:39;;;;;;;;;;;7.90;99.90;;;;;;4971577;28;20053;-64
2022/12/25 05:44:06;;;;;;;1.92;1.73;;;7.80;99.90;;;;;;4969790;28;19926;-65
2022/12/25 05:46:33;;;;;;;;;;;7.80;99.90;;;;;;4970594;28;20787;-63
2022/12/25 05:49:00;;;;;;;2.42;1.55;;;7.70;99.90;;;;;;4985580;28;20571;-64
2022/12/25 05:51:26;;;;;;;;;;;7.70;99.90;;;;;;4972821;28;20034;-65
2022/12/25 05:53:53;;;;;;;4.82;2.20;;;7.60;99.90;;;;;;4969615;28;19925;-66
2022/12/25 05:56:20;;;;;;;3.20;2.10;;;7.60;99.90;;;;;;4972607;28;20046;-64
2022/12/25 05:58:47;;;;;;;5.05;2.80;;;7.60;99.90;;;;;;4967402;28;20042;-64
2022/12/25 06:01:19;;;;;;;2.28;1.98;;;7.60;99.90;;;;;;4969164;28;20796;-64
2022/12/25 06:03:47;;;;;;;4.10;2.40;;;7.50;99.90;;;;;;4971514;28;20521;-66
2022/12/25 06:06:14;;;;;;;6.63;3.67;;;7.50;99.90;;;;;;4968641;28;20042;-65
2022/12/25 06:08:41;;;;;;;2.22;2.03;;;7.60;99.90;;;;;;4970703;28;20053;-64
2022/12/25 06:11:10;;;;;;;2.85;2.13;;;7.60;99.90;;;;;;4969372;28;20140;-64
2022/12/25 06:13:37;;;;;;;2.60;2.25;;;7.60;99.90;;;;;;4969263;28;20125;-64
2022/12/25 06:16:09;;;;;;;2.88;2.20;;;7.60;99.90;;;;;;4969105;28;20165;-64
2022/12/25 06:18:40;;;;;;;2.50;1.70;;;7.60;99.90;;;;;;4969076;28;20500;-64
2022/12/25 06:21:10;;;;;;;3.92;2.15;;;7.50;99.90;;;;;;4971345;28;20050;-65
2022/12/25 06:23:37;;;;;;;2.13;1.95;;;7.50;99.90;;;;;;4969875;28;20125;-65
2022/12/25 06:26:07;;;;;;;2.67;2.10;;;7.50;99.90;;;;;;4969139;28;20050;-65
2022/12/25 06:28:34;;;;;;;2.58;1.98;;;7.50;99.90;;;;;;4972116;28;20165;-64
2022/12/25 06:31:08;;;;;;;6.30;2.42;;;7.40;99.90;;;;;;4970838;28;20500;-64
2022/12/25 06:33:36;;;;;;;4.72;1.88;;;7.40;99.90;;;;;;4973440;28;20049;-65
2022/12/25 06:36:24;;;;;;;2.55;2.10;;;7.30;99.90;;;;;;4972484;28;20616;-64
2022/12/25 06:38:52;;;;;;;6.20;2.33;;;7.30;99.90;;;;;;4968121;28;20122;-65
2022/12/25 06:41:23;;;;;;;5.68;2.25;;;7.20;99.90;;;;;;4968086;28;20463;-64
2022/12/25 06:43:53;;;;;;;2.33;1.90;;;7.20;99.90;;;;;;4969208;28;20054;-65
2022/12/25 06:46:21;;;;;;;4.57;2.40;;;7.30;99.90;;;;;;4971011;28;20046;-63
2022/12/25 06:48:48;;;;;;;2.63;2.15;;;7.20;99.90;;;;;;4966393;28;20545;-65
2022/12/25 06:51:17;;;;;;;2.08;1.60;;;7.30;99.90;;;;;;4969512;28;20046;-64
2022/12/25 06:53:45;;;;;;;3.53;1.90;;;7.20;99.90;;;;;;4969371;28;20043;-64
2022/12/25 06:56:15;;;;;;;2.55;2.08;;;7.20;99.90;;;;;;4968214;28;20445;-65
2022/12/25 06:58:47;;;;;;;5.22;2.20;;;7.20;99.90;;;;;;4970504;28;20054;-64
2022/12/25 07:01:19;;;;;;;3.28;1.60;;;7.20;99.90;;;;;;4970107;28;20057;-65
2022/12/25 07:03:48;;;;;;;1.80;1.70;;;7.10;99.90;;;;;;4970652;28;20288;-65
2022/12/25 07:06:15;;;;;;;4.38;1.80;;;7.10;99.90;;;;;;4973933;28;20073;-64
2022/12/25 07:08:42;;;;;;;4.28;2.00;;;7.10;99.90;;;;;;4974641;28;20542;-67
2022/12/25 07:11:09;;;;;;;;;;;7.20;99.90;;;;;;4975260;28;20046;-64
2022/12/25 07:13:36;;;;;;;2.42;1.92;;;7.10;99.90;;;;;;4976946;28;20046;-63
2022/12/25 07:16:03;;;;;;;;;;;7.10;99.90;;;;;;4970647;28;20050;-63
2022/12/25 07:18:31;;;;;;;3.05;1.70;;;7.10;99.90;;;;;;4972903;28;19925;-64
2022/12/25 07:21:01;;;;;;;4.95;1.70;;;7.10;99.90;;;;;;4974825;28;20515;-64
2022/12/25 07:23:27;;;;;;;1.83;1.55;;;7.10;99.90;;;;;;4969467;28;20050;-64
2022/12/25 07:25:55;;;;;;;;;;;7.10;99.90;;;;;;4971201;28;20038;-65
2022/12/25 07:28:22;;;;;;;2.58;1.95;;;7.00;99.90;;;;;;4972733;28;20363;-52
2022/12/25 07:30:49;;;;;;;;;;;7.10;99.90;;;;;;4972125;28;20054;-52
2022/12/25 07:33:16;;;;;;;1.87;1.43;;;7.10;99.90;;;;;;4970398;28;19926;-52
2022/12/25 07:35:43;;;;;;;3.65;1.90;;;7.20;99.90;;;;;;4969922;28;20309;-50
2022/12/25 07:38:10;;;;;;;;;;;7.30;99.90;;;;;;4971061;28;20042;-49
2022/12/25 07:40:37;;;;;;;4.28;1.73;;;7.60;99.90;;;;;;4970305;28;20027;-48
2022/12/25 07:43:04;;;;;;;4.47;1.85;;;7.90;99.90;;;;;;4971343;28;20487;-49
2022/12/25 07:45:30;;;;;;;;;;;8.10;99.90;;;;;;4972640;28;20054;-52
2022/12/25 07:47:57;;;;;;;3.30;1.90;;;8.40;99.90;;;;;;4972383;28;20020;-48
2022/12/25 07:50:30;;;;;;;2.10;1.70;;;8.70;99.90;;;;;;4971794;28;20754;-51
2022/12/25 07:52:57;;;;;;;4.32;1.50;;;9.10;99.90;;;;;;4970189;28;20042;-52
2022/12/25 07:55:24;;;;;;;2.08;1.70;;;9.40;99.90;;;;;;4970434;28;20085;-60
2022/12/25 07:57:51;;;;;;;;;;;9.70;99.90;;;;;;4973097;28;20073;-47
2022/12/25 08:00:18;;;;;;;1.85;1.50;;;10.00;99.90;;;;;;4968956;28;20217;-51
2022/12/25 08:02:48;;;;;;;2.05;1.52;;;10.30;99.90;;;;;;4972317;28;20518;-48
2022/12/25 08:05:16;;;;;;;2.55;1.05;;;10.60;99.90;;;;;;4984584;28;20165;-48
2022/12/25 08:07:42;;;;;;;3.83;1.95;;;10.70;99.90;;;;;;4984715;28;20053;-53
2022/12/25 08:10:09;;;;;;;5.13;4.10;;;10.80;99.90;;;;;;4970311;28;20502;-52
2022/12/25 08:12:36;;;;;;;1.92;1.35;;;10.90;99.90;;;;;;4969705;28;20042;-50
2022/12/25 08:15:03;;;;;;;;;;;11.00;99.90;;;;;;4970335;28;20489;-49
2022/12/25 08:17:30;;;;;;;4.05;1.20;;;11.10;99.90;;;;;;4968789;28;19976;-53
2022/12/25 08:19:56;;;;;;;;;;;11.30;99.90;;;;;;4971563;28;20053;-50
2022/12/25 08:22:23;;;;;;;1.52;1.20;;;11.40;99.90;;;;;;4970989;28;19938;-52
2022/12/25 08:24:50;;;;;;;1.25;1.15;;;11.40;99.90;;;;;;4969622;28;20047;-54
2022/12/25 08:27:17;;;;;;;1.88;1.00;;;11.50;99.90;;;;;;4970288;28;20116;-51
2022/12/25 08:29:43;;;;;;;1.98;1.35;;;11.60;99.90;;;;;;4970006;28;20065;-51
2022/12/25 08:32:10;;;;;;;1.58;1.10;;;11.90;99.90;;;;;;4968906;28;20081;-52
2022/12/25 08:34:37;;;;;;;;;;;12.10;99.90;;;;;;4967880;28;20349;-50
2022/12/25 08:37:04;;;;;;;2.08;1.55;;;12.40;99.90;;;;;;4972497;28;20425;-47
2022/12/25 08:39:31;;;;;;;1.20;1.10;;;12.70;99.90;;;;;;4971391;28;20153;-48
2022/12/25 08:41:57;;;;;;;4.32;1.52;;;13.00;99.90;;;;;;4970793;28;20069;-48
2022/12/25 08:44:24;;;;;;;1.48;1.10;;;13.40;99.90;;;;;;4970784;28;20136;-49
2022/12/25 08:46:51;;;;;;;1.55;1.08;;;13.70;99.90;;;;;;4969313;28;20068;-51
2022/12/25 08:49:18;;;;;;;3.10;1.15;;;14.10;99.90;;;;;;4968218;28;20157;-50
2022/12/25 08:51:45;;;;;;;;;;;14.30;99.90;;;;;;4972573;28;20504;-50
2022/12/25 08:54:12;;;;;;;2.65;1.48;;;14.60;99.90;;;;;;4968779;28;19933;-50
2022/12/25 08:56:38;;;;;;;2.72;1.73;;;14.80;99.90;;;;;;4970717;28;20054;-48
2022/12/25 08:59:05;;;;;;;;;;;15.00;99.90;;;;;;4971110;28;20046;-52
2022/12/25 09:01:32;;;;;;;3.15;1.58;;;15.20;99.90;;;;;;4984258;28;19929;-54
2022/12/25 09:03:59;;;;;;;5.05;1.58;;;15.40;99.90;;;;;;4967906;28;20042;-52
2022/12/25 09:06:26;;;;;;;2.28;1.17;;;15.70;99.90;;;;;;4967870;28;20049;-52
2022/12/25 09:08:52;;;;;;;;;;;15.80;99.90;;;;;;4973321;28;20415;-53
2022/12/25 09:11:19;;;;;;;2.75;1.67;;;15.90;99.90;;;;;;4987039;28;19934;-50
2022/12/25 09:13:47;;;;;;;2.08;1.45;;;16.00;99.90;;;;;;4983849;28;20601;-54
2022/12/25 09:16:17;;;;;;;2.25;1.52;;;16.10;99.90;;;;;;4970262;28;20046;-54
2022/12/25 09:18:44;;;;;;;3.45;2.10;;;16.20;99.90;;;;;;4971328;28;20156;-56
2022/12/25 09:21:14;;;;;;;12.60;3.40;;;16.30;99.90;;;;;;4971879;28;20377;-54
2022/12/25 09:23:41;;;;;;;4.07;1.60;;;16.50;99.90;;;;;;4973262;28;20134;-53
2022/12/25 09:26:11;;;;;;;2.15;1.63;;;16.50;99.90;;;;;;4971610;28;20579;-52
2022/12/25 09:28:37;;;;;;;2.38;1.63;;;16.50;99.90;;;;;;4974470;28;20057;-52
2022/12/25 09:31:04;;;;;;;3.15;1.95;;;16.60;99.90;;;;;;4985132;28;20512;-51
2022/12/25 09:33:31;;;;;;;3.45;1.92;;;16.60;99.90;;;;;;4969953;28;20045;-50
2022/12/25 09:36:05;;;;;;;4.10;2.28;;;16.70;99.90;;;;;;4970033;28;20060;-57
2022/12/25 09:38:33;;;;;;;6.80;3.15;;;16.70;99.90;;;;;;4982247;28;20057;-53
2022/12/25 09:41:29;;;;;;;5.82;2.55;;;16.70;99.90;;;;;;4969678;28;20038;-54
2022/12/25 09:44:41;;;;;;;3.53;2.25;;;16.80;99.90;;;;;;4967590;28;20481;-53
2022/12/25 09:47:13;;;;;;;4.68;2.47;;;17.00;99.90;;;;;;4926046;28;20145;-52
2022/12/25 09:49:53;;;;;;;5.45;2.83;;;17.00;99.90;;;;;;4965542;28;20156;-50
2022/12/25 09:52:33;;;;;;;3.33;2.33;;;17.10;99.90;;;;;;4970414;28;20476;-48
2022/12/25 09:55:11;;;;;;;4.18;2.40;;;17.10;99.90;;;;;;4970182;28;20100;-50
2022/12/25 09:57:53;;;;;;;4.85;2.63;;;17.20;99.90;;;;;;4973157;28;20073;-50
2022/12/25 10:00:22;;;;;;;6.80;3.42;;;17.30;99.90;;;;;;4969995;28;20050;-51
2022/12/25 10:03:08;;;;;;;3.80;2.35;;;17.30;99.90;;;;;;4967907;28;20054;-52
2022/12/25 10:06:10;;;;;;;3.55;2.20;;;17.30;99.90;;;;;;4981022;28;20049;-48
2022/12/25 10:09:11;;;;;;;2.80;2.10;;;17.30;99.90;;;;;;4967892;28;20096;-56
2022/12/25 10:12:29;;;;;;;2.75;2.47;;;17.20;99.90;;;;;;4969526;28;20144;-52
2022/12/25 10:15:05;;;;;;;9.02;3.28;;;16.80;99.90;;;;;;4961892;28;20054;-49
2022/12/25 10:17:50;;;;;;;5.68;3.38;;;16.50;99.90;;;;;;4968350;28;20587;-49
2022/12/25 10:20:25;;;;;;;3.72;3.13;;;16.30;99.90;;;;;;4970353;28;20404;-49
2022/12/25 10:22:58;;;;;;;9.10;3.63;;;16.10;99.90;;;;;;4968649;28;20053;-50
2022/12/25 10:25:25;;;;;;;6.68;3.20;;;15.90;99.90;;;;;;4981989;28;20065;-50
2022/12/25 10:27:56;;;;;;;5.10;3.45;;;15.90;99.90;;;;;;4968140;28;20411;-50
2022/12/25 10:30:25;;;;;;;3.40;2.85;;;15.70;99.90;;;;;;4969788;28;20525;-48
2022/12/25 10:32:53;;;;;;;2.80;2.20;;;15.60;99.90;;;;;;4967606;28;20046;-48
2022/12/25 10:35:22;;;;;;;2.95;2.55;;;15.50;99.90;;;;;;4971775;28;20042;-48
2022/12/25 10:37:59;;;;;;;3.58;2.38;;;15.50;99.90;;;;;;4971482;28;20042;-52
2022/12/25 10:40:50;;;;;;;4.38;2.63;;;15.60;99.90;;;;;;4972572;28;20528;-51
2022/12/25 10:43:31;;;;;;;2.20;2.00;;;15.50;99.90;;;;;;4973606;28;20046;-49
2022/12/25 10:45:58;;;;;;;2.78;2.45;;;15.50;99.90;;;;;;4973424;28;20193;-52
2022/12/25 10:48:28;;;;;;;2.65;2.20;;;15.40;99.90;;;;;;4971099;28;20062;-50
2022/12/25 10:50:55;;;;;;;2.30;1.90;;;15.40;99.90;;;;;;4989697;28;20632;-49
2022/12/25 10:53:24;;;;;;;1.65;1.50;;;15.40;99.90;;;;;;4970894;28;20463;-49
2022/12/25 10:56:03;;;;;;;2.67;2.00;;;15.40;99.90;;;;;;4971713;28;20050;-49
2022/12/25 10:58:31;;;;;;;3.13;1.75;;;15.30;99.90;;;;;;4974169;28;20038;-49
2022/12/25 11:01:07;;;;;;;4.55;2.20;;;15.40;99.90;;;;;;4974669;28;20041;-49
2022/12/25 11:03:37;;;;;;;4.30;2.10;;;15.40;99.90;;;;;;4972024;28;20480;-49
2022/12/25 11:06:06;;;;;;;2.03;1.25;;;15.40;99.90;;;;;;4972103;28;20050;-49
2022/12/25 11:08:33;;;;;;;3.00;1.58;;;15.50;99.90;;;;;;4970024;28;20046;-48
2022/12/25 11:11:06;;;;;;;2.88;1.60;;;15.60;99.90;;;;;;4973709;28;20046;-48
2022/12/25 11:13:38;;;;;;;1.40;1.30;;;15.70;99.90;;;;;;4973843;28;20050;-52
2022/12/25 11:16:24;;;;;;;3.33;1.50;;;15.80;99.90;;;;;;4971222;28;20064;-50
2022/12/25 11:18:53;;;;;;;2.42;1.77;;;15.90;99.90;;;;;;4973025;28;20125;-48
2022/12/25 11:21:31;;;;;;;2.70;2.10;;;16.10;99.90;;;;;;4971176;28;21020;-49
2022/12/25 11:24:04;;;;;;;4.57;3.25;;;16.20;99.90;;;;;;4966231;28;20069;-49
2022/12/25 11:26:45;;;;;;;4.95;3.40;;;16.20;99.90;;;;;;4986160;28;20096;-52
2022/12/25 11:29:43;;;;;;;3.13;2.75;;;16.10;99.90;;;;;;4971564;28;20054;-51
2022/12/25 11:32:30;;;;;;;4.32;3.60;;;16.10;99.90;;;;;;4971903;28;20147;-49
2022/12/25 11:35:00;;;;;;;7.75;4.15;;;16.10;99.90;;;;;;4969686;28;20465;-48
2022/12/25 11:37:49;;;;;;;4.60;3.63;;;16.20;99.90;;;;;;4971977;28;20177;-48
2022/12/25 11:40:24;;;;;;;3.40;3.05;;;16.30;99.90;;;;;;4968515;28;20057;-50
2022/12/25 11:42:59;;;;;;;5.35;3.00;;;16.40;99.90;;;;;;4974883;28;20576;-51
2022/12/25 11:45:38;;;;;;;3.75;3.03;;;16.50;99.90;;;;;;4971973;28;20046;-48
2022/12/25 11:48:18;;;;;;;5.90;3.38;;;16.70;99.90;;;;;;4974924;28;20050;-49
2022/12/25 11:50:50;;;;;;;3.95;3.08;;;16.80;99.90;;;;;;4972400;28;20046;-50
2022/12/25 11:53:23;;;;;;;4.30;3.58;;;16.80;99.90;;;;;;4974690;28;20399;-50
2022/12/25 11:55:54;;;;;;;3.40;2.70;;;16.80;99.90;;;;;;4981598;28;20080;-49
2022/12/25 11:58:43;;;;;;;6.95;3.47;;;16.90;99.90;;;;;;4968519;28;20359;-51
2022/12/25 12:01:33;;;;;;;3.90;3.17;;;17.00;99.90;;;;;;4969488;28;20137;-49
2022/12/25 12:04:05;;;;;;;5.82;3.58;;;17.00;99.90;;;;;;4974218;28;20041;-51
2022/12/25 12:06:42;;;;;;;5.82;2.85;;;17.00;99.90;;;;;;4969705;28;20046;-48
2022/12/25 12:09:34;;;;;;;3.78;3.03;;;16.90;99.90;;;;;;4971095;28;20522;-48
2022/12/25 12:12:28;;;;;;;4.53;2.88;;;16.70;99.90;;;;;;4967297;28;20046;-48
2022/12/25 12:15:19;;;;;;;5.85;3.25;;;16.70;99.90;;;;;;4972561;28;20489;-47
2022/12/25 12:17:46;;;;;;;3.10;2.80;;;16.70;99.90;;;;;;4964382;28;20086;-50
2022/12/25 12:20:27;;;;;;;;;;;16.60;99.90;;;;;;4971852;28;20046;-49
2022/12/25 12:22:54;;;;;;;3.53;3.20;;;16.50;99.90;;;;;;4968682;28;20053;-51
2022/12/25 12:25:21;;;;;;;2.95;2.70;;;16.30;99.90;;;;;;4968746;28;20304;-49
2022/12/25 12:27:57;;;;;;;3.60;3.30;;;16.30;99.90;;;;;;4969661;28;20817;-50
2022/12/25 12:30:36;;;;;;;4.10;3.25;;;16.30;99.90;;;;;;4970353;28;20129;-50
2022/12/25 12:33:05;;;;;;;8.82;3.30;;;16.30;99.90;;;;;;4971404;28;20145;-52
2022/12/25 12:35:35;;;;;;;3.97;3.42;;;16.30;99.90;;;;;;4970567;28;20093;-49
2022/12/25 12:38:18;;;;;;;3.63;3.33;;;16.10;99.90;;;;;;4971139;28;20069;-49
2022/12/25 12:40:59;;;;;;;3.67;3.38;;;16.10;99.90;;;;;;4968855;28;20086;-52
2022/12/25 12:43:37;;;;;;;5.05;3.95;;;16.00;99.90;;;;;;4973881;28;20054;-51
2022/12/25 12:46:34;;;;;;;5.78;3.33;;;15.70;99.90;;;;;;4984972;28;20129;-51
2022/12/25 12:49:15;;;;;;;3.88;3.30;;;15.50;99.90;;;;;;4970353;28;20062;-52
2022/12/25 12:51:42;;;;;;;4.15;3.33;;;15.30;99.90;;;;;;4972205;28;20050;-54
2022/12/25 12:54:19;;;;;;;;;;;15.20;99.90;;;;;;4974468;28;20042;-49
2022/12/25 12:56:58;;;;;;;4.10;3.70;;;15.20;99.90;;;;;;4987637;28;20302;-52
2022/12/25 12:59:30;;;;;;;3.78;3.45;;;15.20;99.90;;;;;;4971584;28;20516;-50
2022/12/25 13:02:39;;;;;;;4.43;3.75;;;15.20;99.90;;;;;;4970055;28;20042;-52
2022/12/25 13:05:32;;;;;;;5.95;3.58;;;15.30;99.90;;;;;;4970652;28;20527;-52
2022/12/25 13:08:30;;;;;;;4.32;3.53;;;15.20;99.90;;;;;;4967988;28;20046;-52
2022/12/25 13:11:30;;;;;;;3.13;2.70;;;15.10;99.90;;;;;;4985587;28;20141;-52
2022/12/25 13:14:01;;;;;;;3.88;3.53;;;15.00;99.90;;;;;;4970963;28;20046;-49
2022/12/25 13:16:35;;;;;;;6.13;3.38;;;14.80;99.90;;;;;;4972565;28;20489;-64
2022/12/25 13:19:12;;;;;;;4.60;3.42;;;14.80;99.90;;;;;;4969359;28;20038;-55
2022/12/25 13:21:39;;;;;;;3.33;3.00;;;14.80;99.90;;;;;;4970681;28;20153;-52
2022/12/25 13:24:18;;;;;;;3.97;3.20;;;14.90;99.90;;;;;;4968488;28;20077;-51
2022/12/25 13:26:45;;;;;;;3.97;3.58;;;15.00;99.90;;;;;;4968219;28;20046;-55
2022/12/25 13:29:31;;;;;;;3.08;2.75;;;15.00;99.90;;;;;;4967048;28;20402;-55
2022/12/25 13:32:00;;;;;;;3.90;3.20;;;15.00;99.90;;;;;;4968425;28;20053;-52
2022/12/25 13:34:36;;;;;;;6.80;3.08;;;15.00;99.90;;;;;;4969187;28;20074;-57
2022/12/25 13:37:18;;;;;;;3.85;3.40;;;15.10;99.90;;;;;;4971605;28;20129;-48
2022/12/25 13:39:50;;;;;;;4.13;3.30;;;15.20;99.90;;;;;;4971427;28;20065;-52
2022/12/25 13:42:21;;;;;;;3.53;3.22;;;15.10;99.90;;;;;;4966711;28;20128;-48
2022/12/25 13:44:54;;;;;;;4.35;3.33;;;15.00;99.90;;;;;;4969440;28;20076;-49
2022/12/25 13:47:30;;;;;;;3.45;3.15;;;14.90;99.90;;;;;;4975621;28;20050;-51
2022/12/25 13:49:59;;;;;;;3.60;3.28;;;15.00;99.90;;;;;;4969699;28;20453;-52
2022/12/25 13:52:33;;;;;;;4.85;3.95;;;15.10;99.90;;;;;;4967198;28;20054;-51
2022/12/25 13:55:10;;;;;;;3.80;3.20;;;15.10;99.90;;;;;;4970921;28;20931;-50
2022/12/25 13:57:39;;;;;;;;;;;15.00;99.90;;;;;;4968322;28;20047;-51
2022/12/25 14:00:15;;;;;;;3.90;3.50;;;15.00;99.90;;;;;;4968819;28;19925;-52
2022/12/25 14:02:44;;;;;;;4.65;3.92;;;15.10;99.90;;;;;;4968456;28;20282;-52
2022/12/25 14:05:30;;;;;;;3.20;2.90;;;15.20;99.90;;;;;;4970266;28;20039;-54
2022/12/25 14:08:22;;;;;;;4.25;3.45;;;15.20;99.90;;;;;;4978359;28;20129;-50
2022/12/25 14:10:51;;;;;;;4.95;3.35;;;15.20;99.90;;;;;;4966895;28;20519;-52
2022/12/25 14:13:25;;;;;;;3.80;3.45;;;15.20;99.90;;;;;;4960247;28;20144;-53
2022/12/25 14:15:54;;;;;;;4.50;3.53;;;15.20;99.90;;;;;;4968821;28;20133;-52
2022/12/25 14:18:22;;;;;;;4.57;3.80;;;15.30;99.90;;;;;;4968489;28;20366;-52
2022/12/25 14:21:06;;;;;;;4.45;3.30;;;15.20;99.90;;;;;;4968901;28;20070;-51
2022/12/25 14:23:43;;;;;;;3.60;3.05;;;15.10;99.90;;;;;;4968530;28;20057;-50
2022/12/25 14:26:16;;;;;;;4.38;3.22;;;15.00;99.90;;;;;;4983632;28;20445;-52
2022/12/25 14:28:47;;;;;;;5.05;4.10;;;14.80;99.90;;;;;;4970195;28;20203;-49
2022/12/25 14:31:14;;;;;;;6.13;4.05;;;14.60;99.90;;;;;;4971956;28;20508;-49
2022/12/25 14:33:42;;;;;;;3.78;3.25;;;14.30;99.90;;;;;;4970459;28;20092;-52
2022/12/25 14:36:12;;;;;;;9.05;3.92;;;13.90;99.90;;;;;;4967866;28;20042;-52
2022/12/25 14:38:41;;;;;;;3.50;2.80;;;13.50;99.90;;;;;;4970396;28;20045;-49
2022/12/25 14:41:32;;;;;;;4.60;3.60;;;13.20;99.90;;;;;;4969962;28;20038;-52
2022/12/25 14:44:05;;;;;;;7.32;3.95;;;12.90;99.90;;;;;;4968183;28;20326;-52
2022/12/25 14:46:33;;;;;;;4.28;3.88;;;12.60;99.90;;;;;;4971181;28;20492;-50
2022/12/25 14:49:04;;;;;;;6.20;3.63;;;12.30;99.90;;;;;;4968862;28;20370;-51
2022/12/25 14:51:34;;;;;;;6.65;4.07;;;11.90;99.90;;;;;;4969155;28;20132;-51
2022/12/25 14:54:05;;;;;;;4.97;3.65;;;11.60;99.90;;;;;;4983605;28;20148;-51
2022/12/25 14:56:38;;;;;;;5.45;4.05;;;11.40;99.90;;;;;;4968550;28;20047;-51
2022/12/25 14:59:08;;;;;;;4.55;3.88;;;11.10;99.90;;;;;;4972486;28;20046;-51
2022/12/25 15:01:40;;;;;;;3.72;3.15;;;10.90;99.90;;;;;;4969207;28;20957;-50
2022/12/25 15:04:10;;;;;;;3.90;3.58;;;10.60;99.90;;;;;;4969142;28;20542;-51
2022/12/25 15:07:09;;;;;;;5.45;3.85;;;10.30;99.90;;;;;;4968480;28;20065;-51
2022/12/25 15:09:36;;;;;;;5.75;4.72;;;10.00;99.90;;;;;;4965050;28;20328;-49
2022/12/25 15:12:04;;;;;;;5.47;4.90;;;9.70;99.90;;;;;;4963939;28;20069;-51
2022/12/25 15:14:31;;;;;;;5.47;4.97;;;9.60;99.90;;;;;;4969110;28;20520;-49